sensor_id;sensor_type;location;lat;lon;timestamp;P1;durP1;ratioP1;P2;durP2;ratioP2
40611;SDS011;26317;44.894;20.286;2023-03-24T00:00:11;39.83;;;29.92;;
40611;SDS011;26317;44.894;20.286;2023-03-24T00:02:57;34.47;;;27.45;;
40611;SDS011;26317;44.894;20.286;2023-03-24T00:05:46;37.83;;;28.27;;
40611;SDS011;26317;44.894;20.286;2023-03-24T00:08:30;42.38;;;29.58;;
40611;SDS011;26317;44.894;20.286;2023-03-24T00:11:11;39.53;;;29.67;;
40611;SDS011;26317;44.894;20.286;2023-03-24T00:13:59;40.92;;;30.50;;
40611;SDS011;26317;44.894;20.286;2023-03-24T00:19:36;37.53;;;28.67;;
40611;SDS011;26317;44.894;20.286;2023-03-24T00:22:27;38.03;;;30.90;;
40611;SDS011;26317;44.894;20.286;2023-03-24T00:25:15;39.78;;;30.75;;
40611;SDS011;26317;44.894;20.286;2023-03-24T00:28:05;37.95;;;29.98;;
40611;SDS011;26317;44.894;20.286;2023-03-24T00:30:48;43.08;;;30.75;;
40611;SDS011;26317;44.894;20.286;2023-03-24T00:33:31;35.55;;;30.35;;
40611;SDS011;26317;44.894;20.286;2023-03-24T00:36:13;37.45;;;30.77;;
40611;SDS011;26317;44.894;20.286;2023-03-24T00:38:53;41.10;;;29.98;;
40611;SDS011;26317;44.894;20.286;2023-03-24T00:41:28;38.53;;;31.10;;
40611;SDS011;26317;44.894;20.286;2023-03-24T00:44:11;43.47;;;31.40;;
40611;SDS011;26317;44.894;20.286;2023-03-24T00:46:51;43.00;;;32.95;;
40611;SDS011;26317;44.894;20.286;2023-03-24T00:49:31;37.72;;;31.33;;
40611;SDS011;26317;44.894;20.286;2023-03-24T00:52:22;40.05;;;31.98;;
40611;SDS011;26317;44.894;20.286;2023-03-24T00:55:05;40.53;;;32.30;;
40611;SDS011;26317;44.894;20.286;2023-03-24T00:57:46;43.35;;;32.70;;
40611;SDS011;26317;44.894;20.286;2023-03-24T01:00:22;41.33;;;31.10;;
40611;SDS011;26317;44.894;20.286;2023-03-24T01:03:07;39.17;;;31.48;;
40611;SDS011;26317;44.894;20.286;2023-03-24T01:05:53;41.20;;;32.35;;
40611;SDS011;26317;44.894;20.286;2023-03-24T01:08:32;34.72;;;30.58;;
40611;SDS011;26317;44.894;20.286;2023-03-24T01:11:12;39.28;;;31.77;;
40611;SDS011;26317;44.894;20.286;2023-03-24T01:13:47;43.47;;;32.88;;
40611;SDS011;26317;44.894;20.286;2023-03-24T01:16:41;41.97;;;32.85;;
40611;SDS011;26317;44.894;20.286;2023-03-24T01:19:20;43.00;;;33.20;;
40611;SDS011;26317;44.894;20.286;2023-03-24T01:22:01;41.60;;;33.67;;
40611;SDS011;26317;44.894;20.286;2023-03-24T01:24:33;50.20;;;35.17;;
40611;SDS011;26317;44.894;20.286;2023-03-24T01:27:21;45.08;;;36.55;;
40611;SDS011;26317;44.894;20.286;2023-03-24T01:30:00;41.03;;;33.97;;
40611;SDS011;26317;44.894;20.286;2023-03-24T01:32:47;42.80;;;36.20;;
40611;SDS011;26317;44.894;20.286;2023-03-24T01:35:31;41.70;;;34.92;;
40611;SDS011;26317;44.894;20.286;2023-03-24T01:38:10;45.80;;;36.05;;
40611;SDS011;26317;44.894;20.286;2023-03-24T01:40:54;44.53;;;35.95;;
40611;SDS011;26317;44.894;20.286;2023-03-24T01:43:44;45.17;;;35.33;;
40611;SDS011;26317;44.894;20.286;2023-03-24T01:46:22;44.90;;;35.10;;
40611;SDS011;26317;44.894;20.286;2023-03-24T01:49:07;41.88;;;34.38;;
40611;SDS011;26317;44.894;20.286;2023-03-24T01:51:55;47.22;;;34.97;;
40611;SDS011;26317;44.894;20.286;2023-03-24T01:54:45;45.75;;;33.72;;
40611;SDS011;26317;44.894;20.286;2023-03-24T01:57:25;42.00;;;34.47;;
40611;SDS011;26317;44.894;20.286;2023-03-24T02:00:11;38.72;;;33.85;;
40611;SDS011;26317;44.894;20.286;2023-03-24T02:03:11;39.70;;;33.38;;
40611;SDS011;26317;44.894;20.286;2023-03-24T02:05:56;42.53;;;32.60;;
40611;SDS011;26317;44.894;20.286;2023-03-24T02:08:37;40.53;;;32.90;;
40611;SDS011;26317;44.894;20.286;2023-03-24T02:11:13;41.63;;;32.33;;
40611;SDS011;26317;44.894;20.286;2023-03-24T02:13:51;41.00;;;31.58;;
40611;SDS011;26317;44.894;20.286;2023-03-24T02:16:32;39.08;;;31.58;;
40611;SDS011;26317;44.894;20.286;2023-03-24T02:26:19;34.33;;;27.95;;
40611;SDS011;26317;44.894;20.286;2023-03-24T02:32:35;32.22;;;28.13;;
40611;SDS011;26317;44.894;20.286;2023-03-24T02:39:11;36.20;;;29.38;;
40611;SDS011;26317;44.894;20.286;2023-03-24T02:42:03;33.47;;;29.10;;
40611;SDS011;26317;44.894;20.286;2023-03-24T02:44:56;35.63;;;29.92;;
40611;SDS011;26317;44.894;20.286;2023-03-24T02:47:45;34.60;;;29.73;;
40611;SDS011;26317;44.894;20.286;2023-03-24T02:50:35;32.55;;;28.27;;
40611;SDS011;26317;44.894;20.286;2023-03-24T02:53:16;33.95;;;29.77;;
40611;SDS011;26317;44.894;20.286;2023-03-24T02:56:32;35.95;;;28.13;;
40611;SDS011;26317;44.894;20.286;2023-03-24T02:59:39;35.83;;;28.80;;
40611;SDS011;26317;44.894;20.286;2023-03-24T03:02:40;35.15;;;29.30;;
40611;SDS011;26317;44.894;20.286;2023-03-24T03:05:34;31.13;;;27.73;;
40611;SDS011;26317;44.894;20.286;2023-03-24T03:08:21;33.58;;;28.45;;
40611;SDS011;26317;44.894;20.286;2023-03-24T03:11:18;35.20;;;29.92;;
40611;SDS011;26317;44.894;20.286;2023-03-24T03:14:05;36.65;;;30.83;;
40611;SDS011;26317;44.894;20.286;2023-03-24T03:16:45;39.03;;;30.75;;
40611;SDS011;26317;44.894;20.286;2023-03-24T03:19:31;40.42;;;30.50;;
40611;SDS011;26317;44.894;20.286;2023-03-24T03:22:24;37.67;;;31.25;;
40611;SDS011;26317;44.894;20.286;2023-03-24T03:25:10;45.30;;;33.03;;
40611;SDS011;26317;44.894;20.286;2023-03-24T03:28:08;41.42;;;32.97;;
40611;SDS011;26317;44.894;20.286;2023-03-24T03:30:50;37.03;;;31.45;;
40611;SDS011;26317;44.894;20.286;2023-03-24T03:33:36;37.38;;;32.22;;
40611;SDS011;26317;44.894;20.286;2023-03-24T03:36:22;36.83;;;32.03;;
40611;SDS011;26317;44.894;20.286;2023-03-24T03:39:05;36.95;;;31.10;;
40611;SDS011;26317;44.894;20.286;2023-03-24T03:41:49;38.20;;;32.72;;
40611;SDS011;26317;44.894;20.286;2023-03-24T03:44:37;43.03;;;34.67;;
40611;SDS011;26317;44.894;20.286;2023-03-24T03:47:29;44.28;;;35.83;;
40611;SDS011;26317;44.894;20.286;2023-03-24T03:50:14;41.42;;;35.45;;
40611;SDS011;26317;44.894;20.286;2023-03-24T03:52:55;44.25;;;34.38;;
40611;SDS011;26317;44.894;20.286;2023-03-24T03:55:33;42.13;;;35.00;;
40611;SDS011;26317;44.894;20.286;2023-03-24T03:58:13;42.05;;;33.45;;
40611;SDS011;26317;44.894;20.286;2023-03-24T04:01:08;44.05;;;33.80;;
40611;SDS011;26317;44.894;20.286;2023-03-24T04:04:32;41.75;;;33.60;;
40611;SDS011;26317;44.894;20.286;2023-03-24T04:07:58;42.30;;;34.97;;
40611;SDS011;26317;44.894;20.286;2023-03-24T04:10:59;46.00;;;36.47;;
40611;SDS011;26317;44.894;20.286;2023-03-24T04:14:24;44.35;;;35.80;;
40611;SDS011;26317;44.894;20.286;2023-03-24T04:17:56;44.20;;;34.65;;
40611;SDS011;26317;44.894;20.286;2023-03-24T04:21:13;43.00;;;35.17;;
40611;SDS011;26317;44.894;20.286;2023-03-24T04:24:17;43.42;;;37.75;;
40611;SDS011;26317;44.894;20.286;2023-03-24T04:27:11;49.55;;;37.30;;
40611;SDS011;26317;44.894;20.286;2023-03-24T04:30:22;42.67;;;35.17;;
40611;SDS011;26317;44.894;20.286;2023-03-24T04:33:22;43.50;;;34.45;;
40611;SDS011;26317;44.894;20.286;2023-03-24T04:36:05;46.90;;;36.72;;
40611;SDS011;26317;44.894;20.286;2023-03-24T04:39:29;43.53;;;35.42;;
40611;SDS011;26317;44.894;20.286;2023-03-24T04:42:18;44.80;;;34.97;;
40611;SDS011;26317;44.894;20.286;2023-03-24T04:45:09;44.78;;;33.17;;
40611;SDS011;26317;44.894;20.286;2023-03-24T04:48:18;40.42;;;32.95;;
40611;SDS011;26317;44.894;20.286;2023-03-24T04:51:31;39.45;;;32.67;;
40611;SDS011;26317;44.894;20.286;2023-03-24T04:54:18;43.25;;;32.65;;
40611;SDS011;26317;44.894;20.286;2023-03-24T04:57:08;46.38;;;34.90;;
40611;SDS011;26317;44.894;20.286;2023-03-24T04:59:50;46.58;;;33.42;;
40611;SDS011;26317;44.894;20.286;2023-03-24T05:02:30;42.60;;;33.73;;
40611;SDS011;26317;44.894;20.286;2023-03-24T05:05:16;46.70;;;34.35;;
40611;SDS011;26317;44.894;20.286;2023-03-24T05:07:55;38.67;;;31.87;;
40611;SDS011;26317;44.894;20.286;2023-03-24T05:10:39;43.67;;;34.40;;
40611;SDS011;26317;44.894;20.286;2023-03-24T05:13:20;47.03;;;35.20;;
40611;SDS011;26317;44.894;20.286;2023-03-24T05:16:08;46.42;;;34.15;;
40611;SDS011;26317;44.894;20.286;2023-03-24T05:18:54;47.75;;;34.28;;
40611;SDS011;26317;44.894;20.286;2023-03-24T05:21:37;42.80;;;33.78;;
40611;SDS011;26317;44.894;20.286;2023-03-24T05:24:16;39.10;;;33.35;;
40611;SDS011;26317;44.894;20.286;2023-03-24T05:27:07;41.55;;;34.05;;
40611;SDS011;26317;44.894;20.286;2023-03-24T05:29:41;37.97;;;32.80;;
40611;SDS011;26317;44.894;20.286;2023-03-24T05:32:30;43.70;;;32.58;;
40611;SDS011;26317;44.894;20.286;2023-03-24T05:35:16;54.60;;;37.15;;
40611;SDS011;26317;44.894;20.286;2023-03-24T05:37:53;42.58;;;34.33;;
40611;SDS011;26317;44.894;20.286;2023-03-24T05:40:45;50.78;;;36.25;;
40611;SDS011;26317;44.894;20.286;2023-03-24T05:43:21;48.80;;;35.92;;
40611;SDS011;26317;44.894;20.286;2023-03-24T05:46:09;59.47;;;39.67;;
40611;SDS011;26317;44.894;20.286;2023-03-24T05:48:53;43.25;;;36.22;;
40611;SDS011;26317;44.894;20.286;2023-03-24T05:51:43;49.63;;;35.03;;
40611;SDS011;26317;44.894;20.286;2023-03-24T05:54:32;45.72;;;35.63;;
40611;SDS011;26317;44.894;20.286;2023-03-24T05:57:29;49.85;;;34.83;;
40611;SDS011;26317;44.894;20.286;2023-03-24T06:00:23;46.03;;;34.97;;
40611;SDS011;26317;44.894;20.286;2023-03-24T06:03:16;44.47;;;35.15;;
40611;SDS011;26317;44.894;20.286;2023-03-24T06:06:02;45.92;;;35.47;;
40611;SDS011;26317;44.894;20.286;2023-03-24T06:08:52;42.33;;;35.58;;
40611;SDS011;26317;44.894;20.286;2023-03-24T06:11:48;48.03;;;35.15;;
40611;SDS011;26317;44.894;20.286;2023-03-24T06:14:47;45.55;;;34.65;;
40611;SDS011;26317;44.894;20.286;2023-03-24T06:17:25;53.20;;;35.83;;
40611;SDS011;26317;44.894;20.286;2023-03-24T06:20:36;50.08;;;37.35;;
40611;SDS011;26317;44.894;20.286;2023-03-24T06:23:19;48.50;;;34.90;;
40611;SDS011;26317;44.894;20.286;2023-03-24T06:26:12;49.47;;;35.45;;
40611;SDS011;26317;44.894;20.286;2023-03-24T06:29:27;48.75;;;35.63;;
40611;SDS011;26317;44.894;20.286;2023-03-24T06:32:19;45.35;;;35.10;;
40611;SDS011;26317;44.894;20.286;2023-03-24T06:35:25;37.92;;;33.10;;
40611;SDS011;26317;44.894;20.286;2023-03-24T06:38:16;42.22;;;33.08;;
40611;SDS011;26317;44.894;20.286;2023-03-24T06:41:03;54.28;;;38.03;;
40611;SDS011;26317;44.894;20.286;2023-03-24T06:43:45;42.92;;;34.03;;
40611;SDS011;26317;44.894;20.286;2023-03-24T06:46:28;41.53;;;34.92;;
40611;SDS011;26317;44.894;20.286;2023-03-24T06:49:19;40.67;;;32.35;;
40611;SDS011;26317;44.894;20.286;2023-03-24T06:51:57;45.28;;;33.22;;
40611;SDS011;26317;44.894;20.286;2023-03-24T06:54:53;42.35;;;35.35;;
40611;SDS011;26317;44.894;20.286;2023-03-24T06:57:35;34.63;;;28.98;;
40611;SDS011;26317;44.894;20.286;2023-03-24T07:00:39;32.45;;;23.80;;
40611;SDS011;26317;44.894;20.286;2023-03-24T07:03:37;34.08;;;26.70;;
40611;SDS011;26317;44.894;20.286;2023-03-24T07:06:40;31.15;;;25.17;;
40611;SDS011;26317;44.894;20.286;2023-03-24T07:09:42;31.17;;;26.23;;
40611;SDS011;26317;44.894;20.286;2023-03-24T07:12:13;34.50;;;27.50;;
40611;SDS011;26317;44.894;20.286;2023-03-24T07:14:50;30.40;;;26.77;;
40611;SDS011;26317;44.894;20.286;2023-03-24T07:17:30;29.65;;;23.38;;
40611;SDS011;26317;44.894;20.286;2023-03-24T07:20:22;34.38;;;25.38;;
40611;SDS011;26317;44.894;20.286;2023-03-24T07:23:17;28.63;;;24.55;;
40611;SDS011;26317;44.894;20.286;2023-03-24T07:29:22;32.70;;;24.23;;
40611;SDS011;26317;44.894;20.286;2023-03-24T07:32:16;31.80;;;24.60;;
40611;SDS011;26317;44.894;20.286;2023-03-24T07:35:14;27.17;;;24.35;;
40611;SDS011;26317;44.894;20.286;2023-03-24T07:37:59;29.63;;;23.95;;
40611;SDS011;26317;44.894;20.286;2023-03-24T07:40:58;31.75;;;25.17;;
40611;SDS011;26317;44.894;20.286;2023-03-24T07:46:23;30.38;;;25.30;;
40611;SDS011;26317;44.894;20.286;2023-03-24T07:49:33;29.27;;;19.45;;
40611;SDS011;26317;44.894;20.286;2023-03-24T07:52:17;24.50;;;21.35;;
40611;SDS011;26317;44.894;20.286;2023-03-24T07:54:58;24.63;;;20.38;;
40611;SDS011;26317;44.894;20.286;2023-03-24T07:58:12;24.48;;;21.35;;
40611;SDS011;26317;44.894;20.286;2023-03-24T08:01:21;27.45;;;19.20;;
40611;SDS011;26317;44.894;20.286;2023-03-24T08:03:59;24.00;;;20.30;;
40611;SDS011;26317;44.894;20.286;2023-03-24T08:07:05;23.42;;;18.33;;
40611;SDS011;26317;44.894;20.286;2023-03-24T08:12:44;24.15;;;18.20;;
40611;SDS011;26317;44.894;20.286;2023-03-24T08:15:28;23.45;;;18.38;;
40611;SDS011;26317;44.894;20.286;2023-03-24T08:18:05;23.05;;;17.20;;
40611;SDS011;26317;44.894;20.286;2023-03-24T08:20:45;23.23;;;16.88;;
40611;SDS011;26317;44.894;20.286;2023-03-24T08:23:31;23.35;;;16.38;;
40611;SDS011;26317;44.894;20.286;2023-03-24T08:26:21;22.52;;;15.63;;
40611;SDS011;26317;44.894;20.286;2023-03-24T08:29:02;21.65;;;15.88;;
40611;SDS011;26317;44.894;20.286;2023-03-24T08:31:48;19.58;;;16.17;;
40611;SDS011;26317;44.894;20.286;2023-03-24T08:34:30;21.77;;;16.20;;
40611;SDS011;26317;44.894;20.286;2023-03-24T08:37:16;21.85;;;16.25;;
40611;SDS011;26317;44.894;20.286;2023-03-24T08:40:03;23.40;;;16.10;;
40611;SDS011;26317;44.894;20.286;2023-03-24T08:43:02;26.63;;;16.27;;
40611;SDS011;26317;44.894;20.286;2023-03-24T08:45:41;26.15;;;15.38;;
40611;SDS011;26317;44.894;20.286;2023-03-24T08:48:19;20.83;;;14.95;;
40611;SDS011;26317;44.894;20.286;2023-03-24T08:51:16;25.10;;;14.25;;
40611;SDS011;26317;44.894;20.286;2023-03-24T08:53:56;18.83;;;14.30;;
40611;SDS011;26317;44.894;20.286;2023-03-24T08:56:56;19.13;;;14.38;;
40611;SDS011;26317;44.894;20.286;2023-03-24T08:59:35;22.77;;;11.47;;
40611;SDS011;26317;44.894;20.286;2023-03-24T09:02:21;15.48;;;12.40;;
40611;SDS011;26317;44.894;20.286;2023-03-24T09:05:07;16.83;;;13.57;;
40611;SDS011;26317;44.894;20.286;2023-03-24T09:08:12;19.60;;;12.68;;
40611;SDS011;26317;44.894;20.286;2023-03-24T09:11:10;20.52;;;12.63;;
40611;SDS011;26317;44.894;20.286;2023-03-24T09:14:10;14.25;;;10.30;;
40611;SDS011;26317;44.894;20.286;2023-03-24T09:16:56;25.83;;;11.13;;
40611;SDS011;26317;44.894;20.286;2023-03-24T09:19:37;18.88;;;11.93;;
40611;SDS011;26317;44.894;20.286;2023-03-24T09:22:20;15.55;;;10.00;;
40611;SDS011;26317;44.894;20.286;2023-03-24T09:24:55;21.02;;;9.68;;
40611;SDS011;26317;44.894;20.286;2023-03-24T09:27:32;13.23;;;9.40;;
40611;SDS011;26317;44.894;20.286;2023-03-24T09:30:30;13.90;;;9.80;;
40611;SDS011;26317;44.894;20.286;2023-03-24T09:33:13;17.27;;;10.43;;
40611;SDS011;26317;44.894;20.286;2023-03-24T09:38:39;14.63;;;10.43;;
40611;SDS011;26317;44.894;20.286;2023-03-24T09:41:20;16.95;;;10.10;;
40611;SDS011;26317;44.894;20.286;2023-03-24T09:44:18;19.92;;;11.13;;
40611;SDS011;26317;44.894;20.286;2023-03-24T09:47:11;13.18;;;8.63;;
40611;SDS011;26317;44.894;20.286;2023-03-24T09:50:06;13.38;;;9.55;;
40611;SDS011;26317;44.894;20.286;2023-03-24T09:53:12;12.60;;;7.35;;
40611;SDS011;26317;44.894;20.286;2023-03-24T09:59:12;14.77;;;8.27;;
40611;SDS011;26317;44.894;20.286;2023-03-24T10:01:54;10.60;;;7.60;;
40611;SDS011;26317;44.894;20.286;2023-03-24T10:04:38;11.00;;;7.45;;
40611;SDS011;26317;44.894;20.286;2023-03-24T10:07:24;11.68;;;7.97;;
40611;SDS011;26317;44.894;20.286;2023-03-24T10:10:08;15.35;;;9.50;;
40611;SDS011;26317;44.894;20.286;2023-03-24T10:13:02;15.20;;;8.23;;
40611;SDS011;26317;44.894;20.286;2023-03-24T10:15:45;15.15;;;8.40;;
40611;SDS011;26317;44.894;20.286;2023-03-24T10:21:16;8.85;;;7.28;;
40611;SDS011;26317;44.894;20.286;2023-03-24T10:23:58;10.30;;;7.55;;
40611;SDS011;26317;44.894;20.286;2023-03-24T10:26:44;9.48;;;5.85;;
40611;SDS011;26317;44.894;20.286;2023-03-24T10:32:17;8.57;;;7.38;;
40611;SDS011;26317;44.894;20.286;2023-03-24T10:34:54;15.85;;;7.05;;
40611;SDS011;26317;44.894;20.286;2023-03-24T10:37:40;11.80;;;6.10;;
40611;SDS011;26317;44.894;20.286;2023-03-24T10:40:30;23.65;;;7.90;;
40611;SDS011;26317;44.894;20.286;2023-03-24T10:43:10;11.98;;;6.40;;
40611;SDS011;26317;44.894;20.286;2023-03-24T10:45:50;10.77;;;6.10;;
40611;SDS011;26317;44.894;20.286;2023-03-24T10:48:43;12.80;;;6.90;;
40611;SDS011;26317;44.894;20.286;2023-03-24T10:51:28;8.43;;;6.15;;
40611;SDS011;26317;44.894;20.286;2023-03-24T10:54:33;8.65;;;5.68;;
40611;SDS011;26317;44.894;20.286;2023-03-24T10:57:40;6.78;;;4.65;;
40611;SDS011;26317;44.894;20.286;2023-03-24T11:00:31;9.73;;;4.75;;
40611;SDS011;26317;44.894;20.286;2023-03-24T11:03:24;8.98;;;5.28;;
40611;SDS011;26317;44.894;20.286;2023-03-24T11:06:19;7.28;;;5.15;;
40611;SDS011;26317;44.894;20.286;2023-03-24T11:09:17;10.27;;;5.40;;
40611;SDS011;26317;44.894;20.286;2023-03-24T11:12:04;13.02;;;5.95;;
40611;SDS011;26317;44.894;20.286;2023-03-24T11:15:23;10.43;;;5.68;;
40611;SDS011;26317;44.894;20.286;2023-03-24T11:18:18;5.40;;;4.78;;
40611;SDS011;26317;44.894;20.286;2023-03-24T11:20:58;13.02;;;4.95;;
40611;SDS011;26317;44.894;20.286;2023-03-24T11:23:46;8.38;;;4.65;;
40611;SDS011;26317;44.894;20.286;2023-03-24T11:26:29;6.05;;;4.75;;
40611;SDS011;26317;44.894;20.286;2023-03-24T11:29:06;8.27;;;4.50;;
40611;SDS011;26317;44.894;20.286;2023-03-24T11:31:52;7.03;;;5.10;;
40611;SDS011;26317;44.894;20.286;2023-03-24T11:34:35;8.27;;;4.03;;
40611;SDS011;26317;44.894;20.286;2023-03-24T11:37:21;4.35;;;3.70;;
40611;SDS011;26317;44.894;20.286;2023-03-24T11:40:17;5.43;;;4.05;;
40611;SDS011;26317;44.894;20.286;2023-03-24T11:43:01;9.05;;;4.13;;
40611;SDS011;26317;44.894;20.286;2023-03-24T11:45:46;13.38;;;4.05;;
40611;SDS011;26317;44.894;20.286;2023-03-24T11:48:32;11.55;;;4.60;;
40611;SDS011;26317;44.894;20.286;2023-03-24T11:51:21;5.07;;;4.07;;
40611;SDS011;26317;44.894;20.286;2023-03-24T11:54:05;6.05;;;3.80;;
40611;SDS011;26317;44.894;20.286;2023-03-24T11:56:52;7.20;;;4.20;;
40611;SDS011;26317;44.894;20.286;2023-03-24T12:00:00;5.10;;;3.58;;
40611;SDS011;26317;44.894;20.286;2023-03-24T12:03:03;4.80;;;3.83;;
40611;SDS011;26317;44.894;20.286;2023-03-24T12:06:06;11.00;;;3.92;;
40611;SDS011;26317;44.894;20.286;2023-03-24T12:08:59;6.85;;;3.88;;
40611;SDS011;26317;44.894;20.286;2023-03-24T12:12:25;6.05;;;4.05;;
40611;SDS011;26317;44.894;20.286;2023-03-24T12:15:21;4.03;;;3.63;;
40611;SDS011;26317;44.894;20.286;2023-03-24T12:24:51;10.70;;;7.55;;
40611;SDS011;26317;44.894;20.286;2023-03-24T12:27:49;10.27;;;4.07;;
40611;SDS011;26317;44.894;20.286;2023-03-24T12:30:39;10.00;;;3.42;;
40611;SDS011;26317;44.894;20.286;2023-03-24T12:33:39;16.65;;;4.10;;
40611;SDS011;26317;44.894;20.286;2023-03-24T12:36:39;4.68;;;3.60;;
40611;SDS011;26317;44.894;20.286;2023-03-24T12:39:27;6.18;;;3.58;;
40611;SDS011;26317;44.894;20.286;2023-03-24T12:42:12;7.28;;;3.83;;
40611;SDS011;26317;44.894;20.286;2023-03-24T12:45:02;13.35;;;3.83;;
40611;SDS011;26317;44.894;20.286;2023-03-24T12:47:59;4.90;;;3.40;;
40611;SDS011;26317;44.894;20.286;2023-03-24T12:50:59;9.40;;;3.53;;
40611;SDS011;26317;44.894;20.286;2023-03-24T12:53:53;7.90;;;3.78;;
40611;SDS011;26317;44.894;20.286;2023-03-24T12:56:54;5.38;;;3.67;;
40611;SDS011;26317;44.894;20.286;2023-03-24T12:59:34;8.43;;;3.35;;
40611;SDS011;26317;44.894;20.286;2023-03-24T13:02:18;8.40;;;3.00;;
40611;SDS011;26317;44.894;20.286;2023-03-24T13:05:05;7.65;;;3.22;;
40611;SDS011;26317;44.894;20.286;2023-03-24T13:07:49;10.30;;;3.83;;
40611;SDS011;26317;44.894;20.286;2023-03-24T13:10:37;5.53;;;2.90;;
40611;SDS011;26317;44.894;20.286;2023-03-24T13:13:28;9.50;;;3.10;;
40611;SDS011;26317;44.894;20.286;2023-03-24T13:16:10;4.00;;;2.22;;
40611;SDS011;26317;44.894;20.286;2023-03-24T13:18:54;4.85;;;2.83;;
40611;SDS011;26317;44.894;20.286;2023-03-24T13:21:35;6.57;;;2.60;;
40611;SDS011;26317;44.894;20.286;2023-03-24T13:24:23;22.42;;;4.28;;
40611;SDS011;26317;44.894;20.286;2023-03-24T13:27:08;6.25;;;2.92;;
40611;SDS011;26317;44.894;20.286;2023-03-24T13:32:48;23.33;;;4.10;;
40611;SDS011;26317;44.894;20.286;2023-03-24T13:35:52;6.32;;;2.47;;
40611;SDS011;26317;44.894;20.286;2023-03-24T13:38:42;7.90;;;2.83;;
40611;SDS011;26317;44.894;20.286;2023-03-24T13:41:34;4.20;;;3.13;;
40611;SDS011;26317;44.894;20.286;2023-03-24T13:44:17;4.03;;;2.30;;
40611;SDS011;26317;44.894;20.286;2023-03-24T13:47:10;6.40;;;3.05;;
40611;SDS011;26317;44.894;20.286;2023-03-24T13:50:01;5.18;;;3.42;;
40611;SDS011;26317;44.894;20.286;2023-03-24T13:52:42;3.42;;;2.35;;
40611;SDS011;26317;44.894;20.286;2023-03-24T13:55:29;11.73;;;3.25;;
40611;SDS011;26317;44.894;20.286;2023-03-24T13:58:10;3.60;;;2.30;;
40611;SDS011;26317;44.894;20.286;2023-03-24T14:01:05;9.18;;;2.78;;
40611;SDS011;26317;44.894;20.286;2023-03-24T14:07:22;2.33;;;2.13;;
40611;SDS011;26317;44.894;20.286;2023-03-24T14:10:26;5.75;;;2.67;;
40611;SDS011;26317;44.894;20.286;2023-03-24T14:13:25;5.35;;;2.30;;
40611;SDS011;26317;44.894;20.286;2023-03-24T14:19:21;4.35;;;2.45;;
40611;SDS011;26317;44.894;20.286;2023-03-24T14:22:12;7.72;;;2.80;;
40611;SDS011;26317;44.894;20.286;2023-03-24T14:25:02;3.05;;;2.60;;
40611;SDS011;26317;44.894;20.286;2023-03-24T14:28:13;3.03;;;2.30;;
40611;SDS011;26317;44.894;20.286;2023-03-24T14:30:57;5.65;;;2.50;;
40611;SDS011;26317;44.894;20.286;2023-03-24T14:33:40;4.65;;;4.13;;
40611;SDS011;26317;44.894;20.286;2023-03-24T14:36:39;6.88;;;2.97;;
40611;SDS011;26317;44.894;20.286;2023-03-24T14:39:34;7.07;;;2.77;;
40611;SDS011;26317;44.894;20.286;2023-03-24T14:42:51;17.17;;;4.05;;
40611;SDS011;26317;44.894;20.286;2023-03-24T14:45:52;30.90;;;4.85;;
40611;SDS011;26317;44.894;20.286;2023-03-24T14:48:48;8.50;;;2.50;;
40611;SDS011;26317;44.894;20.286;2023-03-24T14:51:49;11.20;;;2.80;;
40611;SDS011;26317;44.894;20.286;2023-03-24T14:54:37;7.32;;;2.83;;
40611;SDS011;26317;44.894;20.286;2023-03-24T14:57:30;6.78;;;2.47;;
40611;SDS011;26317;44.894;20.286;2023-03-24T15:00:13;4.53;;;2.72;;
40611;SDS011;26317;44.894;20.286;2023-03-24T15:02:59;4.90;;;2.45;;
40611;SDS011;26317;44.894;20.286;2023-03-24T15:05:57;8.93;;;3.20;;
40611;SDS011;26317;44.894;20.286;2023-03-24T15:08:49;7.97;;;3.92;;
40611;SDS011;26317;44.894;20.286;2023-03-24T15:11:40;5.32;;;3.88;;
40611;SDS011;26317;44.894;20.286;2023-03-24T15:14:30;4.03;;;3.17;;
40611;SDS011;26317;44.894;20.286;2023-03-24T15:17:14;6.97;;;2.90;;
40611;SDS011;26317;44.894;20.286;2023-03-24T15:20:18;8.77;;;2.80;;
40611;SDS011;26317;44.894;20.286;2023-03-24T15:23:15;4.82;;;3.13;;
40611;SDS011;26317;44.894;20.286;2023-03-24T15:25:59;8.07;;;2.72;;
40611;SDS011;26317;44.894;20.286;2023-03-24T15:28:46;7.57;;;4.20;;
40611;SDS011;26317;44.894;20.286;2023-03-24T15:31:34;6.70;;;3.20;;
40611;SDS011;26317;44.894;20.286;2023-03-24T15:34:27;4.13;;;2.22;;
40611;SDS011;26317;44.894;20.286;2023-03-24T15:37:18;7.00;;;3.15;;
40611;SDS011;26317;44.894;20.286;2023-03-24T15:40:29;6.55;;;2.38;;
40611;SDS011;26317;44.894;20.286;2023-03-24T15:43:21;9.73;;;5.28;;
40611;SDS011;26317;44.894;20.286;2023-03-24T15:46:05;3.17;;;2.53;;
40611;SDS011;26317;44.894;20.286;2023-03-24T15:48:57;5.40;;;2.78;;
40611;SDS011;26317;44.894;20.286;2023-03-24T15:51:48;4.32;;;2.67;;
40611;SDS011;26317;44.894;20.286;2023-03-24T15:54:37;6.05;;;3.25;;
40611;SDS011;26317;44.894;20.286;2023-03-24T15:57:27;5.22;;;3.10;;
40611;SDS011;26317;44.894;20.286;2023-03-24T16:00:11;5.25;;;3.53;;
40611;SDS011;26317;44.894;20.286;2023-03-24T16:03:13;7.22;;;3.97;;
40611;SDS011;26317;44.894;20.286;2023-03-24T16:05:58;10.30;;;8.25;;
40611;SDS011;26317;44.894;20.286;2023-03-24T16:08:39;14.75;;;9.30;;
40611;SDS011;26317;44.894;20.286;2023-03-24T16:11:19;9.10;;;5.72;;
40611;SDS011;26317;44.894;20.286;2023-03-24T16:13:50;6.85;;;4.85;;
40611;SDS011;26317;44.894;20.286;2023-03-24T16:16:35;8.55;;;4.07;;
40611;SDS011;26317;44.894;20.286;2023-03-24T16:19:16;6.57;;;3.38;;
40611;SDS011;26317;44.894;20.286;2023-03-24T16:22:07;6.10;;;2.63;;
40611;SDS011;26317;44.894;20.286;2023-03-24T16:24:50;9.60;;;3.63;;
40611;SDS011;26317;44.894;20.286;2023-03-24T16:27:44;8.93;;;3.60;;
40611;SDS011;26317;44.894;20.286;2023-03-24T16:30:31;11.93;;;3.83;;
40611;SDS011;26317;44.894;20.286;2023-03-24T16:33:18;35.50;;;5.22;;
40611;SDS011;26317;44.894;20.286;2023-03-24T16:36:08;12.02;;;4.97;;
40611;SDS011;26317;44.894;20.286;2023-03-24T16:38:53;14.38;;;4.95;;
40611;SDS011;26317;44.894;20.286;2023-03-24T16:41:37;13.68;;;5.78;;
40611;SDS011;26317;44.894;20.286;2023-03-24T16:44:33;12.30;;;5.93;;
40611;SDS011;26317;44.894;20.286;2023-03-24T16:47:23;21.10;;;6.45;;
40611;SDS011;26317;44.894;20.286;2023-03-24T16:50:25;15.50;;;7.07;;
40611;SDS011;26317;44.894;20.286;2023-03-24T16:53:31;20.95;;;7.78;;
40611;SDS011;26317;44.894;20.286;2023-03-24T16:56:11;14.23;;;7.30;;
40611;SDS011;26317;44.894;20.286;2023-03-24T16:58:53;14.68;;;7.57;;
40611;SDS011;26317;44.894;20.286;2023-03-24T17:01:31;16.23;;;9.68;;
40611;SDS011;26317;44.894;20.286;2023-03-24T17:04:18;13.73;;;8.98;;
40611;SDS011;26317;44.894;20.286;2023-03-24T17:07:12;15.25;;;8.07;;
40611;SDS011;26317;44.894;20.286;2023-03-24T17:09:51;15.02;;;9.02;;
40611;SDS011;26317;44.894;20.286;2023-03-24T17:12:29;19.65;;;9.88;;
40611;SDS011;26317;44.894;20.286;2023-03-24T17:15:09;12.40;;;9.02;;
40611;SDS011;26317;44.894;20.286;2023-03-24T17:17:51;13.95;;;8.95;;
40611;SDS011;26317;44.894;20.286;2023-03-24T17:20:46;12.02;;;8.60;;